Bemidji, MN (56601)

11:32 AM CDT on October 23, 2014 (GMT -0500)
Grange Rd | Change Station
CLOSE
Current Station
Personal Weather Station
Location: Bemidji, MN
Elevation: 1417 ft
Nearby Weather Stations

Elev 1417 ft 47.59 °N, 94.92 °W | Updated 1 minute ago

Clear
Clear
63.5 °F
Feels Like 63.5 °F
N
3.7
Wind Variable Wind from SW

Today
High -- | Low -- °F
--% Chance of Precip.
Yesterday
High -- | Low -- °F
Precip. -- in
7:49 AM 6:16 PM
Waning Crescent, 0% visible
Pressure 29.91 in
Visibility 10.0 miles
Clouds Clear
Dew Point 48 °F
Humidity 58%
Rainfall 0.00 in
Snow Depth Not available.
UV 2 out of 12
Pollen .90 out of 12
Air Quality Not available.
Flu Activity Sporadic
METAR KBJI 231613Z AUTO 21009KT 10SM CLR 14/08 A2991 RMK AO2 T01430080

More Conditions Fewer Conditions

Pressure 29.91 in
Visibility 10.0 miles
Clouds Clear
Dew Point 48 °F
Humidity 58%
Rainfall 0.00 in
Snow Depth Not available.
UV 2 out of 12
Pollen .90 out of 12
Air Quality Not available.
Flu Activity Sporadic
METAR KBJI 231613Z AUTO 21009KT 10SM CLR 14/08 A2991 RMK AO2 T01430080

More Conditions Fewer Conditions

10-Day Weather Forecast

Almanac

Astronomy

Oct. 23, 2014 Rise Set
Actual Time 7:49 AM CDT 6:16 PM CDT
Civil Twilight 7:18 AM CDT 6:48 PM CDT
Nautical Twilight 6:42 AM CDT 7:24 PM CDT
Astronomical Twilight 6:06 AM CDT 7:59 PM CDT
Moon 7:29 AM CDT 6:18 PM CDT
Length of Visible Light 11h 29m
Length of Day
10h 26m
Tomorrow will be 3m 14s shorter.
Waning Crescent, 0% of the Moon is Illuminated
Today
Waning Crescent
Oct 23
New
Oct 30
First Quarter
Nov 6
Full
Nov 14
Last Quarter

Today's Extremes

State Highs State Lows

Community

WunderPhotos

Upload Photos

1,764,306 photos uploaded!

WunderBlogs® & News

Nearby

Snow Depth

Station Depth Elevation
No new snow has been reported.

Earthquake Activity

City Distance Mag. Time & Date
No recent earthquake activity has been reported nearby.
Minimum magnitude displayed is 2.5.

Coastal Water Temperatures

Place Temperature
No Stations Reporting

Nearby Weather Stations